sensor_id;sensor_type;location;lat;lon;timestamp;P1;durP1;ratioP1;P2;durP2;ratioP2
10910;SDS011;5508;49.150;11.030;2023-04-09T00:00:33;16.47;;;13.27;;
10910;SDS011;5508;49.150;11.030;2023-04-09T00:03:34;12.53;;;10.97;;
10910;SDS011;5508;49.150;11.030;2023-04-09T00:06:35;12.53;;;11.00;;
10910;SDS011;5508;49.150;11.030;2023-04-09T00:09:35;12.40;;;11.10;;
10910;SDS011;5508;49.150;11.030;2023-04-09T00:12:36;13.00;;;11.70;;
10910;SDS011;5508;49.150;11.030;2023-04-09T00:15:36;13.40;;;11.60;;
10910;SDS011;5508;49.150;11.030;2023-04-09T00:18:37;13.73;;;12.03;;
10910;SDS011;5508;49.150;11.030;2023-04-09T00:21:37;12.97;;;11.57;;
10910;SDS011;5508;49.150;11.030;2023-04-09T00:24:38;15.80;;;14.10;;
10910;SDS011;5508;49.150;11.030;2023-04-09T00:27:38;14.50;;;11.67;;
10910;SDS011;5508;49.150;11.030;2023-04-09T00:30:39;17.33;;;14.07;;
10910;SDS011;5508;49.150;11.030;2023-04-09T00:33:40;19.90;;;15.80;;
10910;SDS011;5508;49.150;11.030;2023-04-09T00:36:41;21.17;;;16.73;;
10910;SDS011;5508;49.150;11.030;2023-04-09T00:39:41;20.57;;;17.03;;
10910;SDS011;5508;49.150;11.030;2023-04-09T00:42:42;18.80;;;16.30;;
10910;SDS011;5508;49.150;11.030;2023-04-09T00:45:45;21.50;;;16.23;;
10910;SDS011;5508;49.150;11.030;2023-04-09T00:48:46;16.30;;;14.53;;
10910;SDS011;5508;49.150;11.030;2023-04-09T00:51:47;18.13;;;14.77;;
10910;SDS011;5508;49.150;11.030;2023-04-09T00:54:48;19.37;;;14.70;;
10910;SDS011;5508;49.150;11.030;2023-04-09T00:57:49;18.50;;;14.33;;
10910;SDS011;5508;49.150;11.030;2023-04-09T01:00:50;16.53;;;13.97;;
10910;SDS011;5508;49.150;11.030;2023-04-09T01:03:50;16.13;;;13.93;;
10910;SDS011;5508;49.150;11.030;2023-04-09T01:06:52;15.57;;;13.83;;
10910;SDS011;5508;49.150;11.030;2023-04-09T01:10:00;15.77;;;14.13;;
10910;SDS011;5508;49.150;11.030;2023-04-09T01:13:15;18.77;;;15.10;;
10910;SDS011;5508;49.150;11.030;2023-04-09T01:16:22;14.70;;;13.10;;
10910;SDS011;5508;49.150;11.030;2023-04-09T01:23:04;17.97;;;14.93;;
10910;SDS011;5508;49.150;11.030;2023-04-09T01:26:12;16.03;;;13.17;;
10910;SDS011;5508;49.150;11.030;2023-04-09T01:29:20;15.80;;;13.40;;
10910;SDS011;5508;49.150;11.030;2023-04-09T01:32:23;15.40;;;13.07;;
10910;SDS011;5508;49.150;11.030;2023-04-09T01:35:25;12.50;;;11.20;;
10910;SDS011;5508;49.150;11.030;2023-04-09T01:38:27;11.87;;;10.67;;
10910;SDS011;5508;49.150;11.030;2023-04-09T01:41:29;16.37;;;14.20;;
10910;SDS011;5508;49.150;11.030;2023-04-09T01:44:31;14.23;;;12.20;;
10910;SDS011;5508;49.150;11.030;2023-04-09T01:47:32;13.27;;;11.97;;
10910;SDS011;5508;49.150;11.030;2023-04-09T01:50:33;11.97;;;10.73;;
10910;SDS011;5508;49.150;11.030;2023-04-09T01:53:34;11.83;;;10.63;;
10910;SDS011;5508;49.150;11.030;2023-04-09T01:56:42;11.87;;;10.53;;
10910;SDS011;5508;49.150;11.030;2023-04-09T01:59:43;10.90;;;9.17;;
10910;SDS011;5508;49.150;11.030;2023-04-09T02:06:02;12.60;;;10.67;;
10910;SDS011;5508;49.150;11.030;2023-04-09T02:09:16;11.53;;;10.37;;
10910;SDS011;5508;49.150;11.030;2023-04-09T02:12:19;13.87;;;10.30;;
10910;SDS011;5508;49.150;11.030;2023-04-09T02:15:21;11.90;;;10.07;;
10910;SDS011;5508;49.150;11.030;2023-04-09T02:18:23;10.87;;;9.70;;
10910;SDS011;5508;49.150;11.030;2023-04-09T02:21:26;13.97;;;11.00;;
10910;SDS011;5508;49.150;11.030;2023-04-09T02:24:28;12.20;;;10.93;;
10910;SDS011;5508;49.150;11.030;2023-04-09T02:27:28;11.00;;;9.90;;
10910;SDS011;5508;49.150;11.030;2023-04-09T02:30:29;12.90;;;11.57;;
10910;SDS011;5508;49.150;11.030;2023-04-09T02:33:29;13.30;;;11.37;;
10910;SDS011;5508;49.150;11.030;2023-04-09T02:36:30;12.07;;;10.77;;
10910;SDS011;5508;49.150;11.030;2023-04-09T02:39:31;12.03;;;10.07;;
10910;SDS011;5508;49.150;11.030;2023-04-09T02:42:31;12.03;;;10.67;;
10910;SDS011;5508;49.150;11.030;2023-04-09T02:45:32;12.80;;;11.37;;
10910;SDS011;5508;49.150;11.030;2023-04-09T02:48:32;14.77;;;12.37;;
10910;SDS011;5508;49.150;11.030;2023-04-09T02:51:36;14.10;;;12.47;;
10910;SDS011;5508;49.150;11.030;2023-04-09T02:54:36;16.13;;;12.83;;
10910;SDS011;5508;49.150;11.030;2023-04-09T02:57:37;15.13;;;12.63;;
10910;SDS011;5508;49.150;11.030;2023-04-09T03:00:37;16.33;;;13.37;;
10910;SDS011;5508;49.150;11.030;2023-04-09T03:03:38;13.50;;;12.07;;
10910;SDS011;5508;49.150;11.030;2023-04-09T03:06:40;16.97;;;13.03;;
10910;SDS011;5508;49.150;11.030;2023-04-09T03:09:41;17.13;;;13.17;;
10910;SDS011;5508;49.150;11.030;2023-04-09T03:12:41;15.77;;;12.87;;
10910;SDS011;5508;49.150;11.030;2023-04-09T03:15:43;13.57;;;11.53;;
10910;SDS011;5508;49.150;11.030;2023-04-09T03:18:44;13.00;;;10.83;;
10910;SDS011;5508;49.150;11.030;2023-04-09T03:21:44;12.97;;;10.00;;
10910;SDS011;5508;49.150;11.030;2023-04-09T03:24:45;12.60;;;10.73;;
10910;SDS011;5508;49.150;11.030;2023-04-09T03:27:45;15.33;;;11.10;;
10910;SDS011;5508;49.150;11.030;2023-04-09T03:30:46;15.50;;;12.17;;
10910;SDS011;5508;49.150;11.030;2023-04-09T03:33:46;16.20;;;12.17;;
10910;SDS011;5508;49.150;11.030;2023-04-09T03:36:47;13.87;;;11.40;;
10910;SDS011;5508;49.150;11.030;2023-04-09T03:39:47;16.07;;;11.33;;
10910;SDS011;5508;49.150;11.030;2023-04-09T03:42:48;14.57;;;11.20;;
10910;SDS011;5508;49.150;11.030;2023-04-09T03:45:48;12.43;;;10.43;;
10910;SDS011;5508;49.150;11.030;2023-04-09T03:48:49;15.57;;;11.53;;
10910;SDS011;5508;49.150;11.030;2023-04-09T03:51:50;20.40;;;12.10;;
10910;SDS011;5508;49.150;11.030;2023-04-09T03:54:50;79.13;;;14.07;;
10910;SDS011;5508;49.150;11.030;2023-04-09T03:57:51;33.17;;;12.37;;
10910;SDS011;5508;49.150;11.030;2023-04-09T04:00:52;43.17;;;14.37;;
10910;SDS011;5508;49.150;11.030;2023-04-09T04:03:53;57.23;;;14.57;;
10910;SDS011;5508;49.150;11.030;2023-04-09T04:06:53;25.27;;;14.27;;
10910;SDS011;5508;49.150;11.030;2023-04-09T04:09:54;30.50;;;14.87;;
10910;SDS011;5508;49.150;11.030;2023-04-09T04:12:54;41.80;;;16.47;;
10910;SDS011;5508;49.150;11.030;2023-04-09T04:15:55;47.27;;;15.17;;
10910;SDS011;5508;49.150;11.030;2023-04-09T04:18:55;26.47;;;13.00;;
10910;SDS011;5508;49.150;11.030;2023-04-09T04:21:56;34.03;;;13.97;;
10910;SDS011;5508;49.150;11.030;2023-04-09T04:24:56;49.13;;;13.97;;
10910;SDS011;5508;49.150;11.030;2023-04-09T04:27:57;29.70;;;12.93;;
10910;SDS011;5508;49.150;11.030;2023-04-09T04:30:57;18.60;;;12.53;;
10910;SDS011;5508;49.150;11.030;2023-04-09T04:33:58;15.77;;;12.03;;
10910;SDS011;5508;49.150;11.030;2023-04-09T04:36:58;63.27;;;13.37;;
10910;SDS011;5508;49.150;11.030;2023-04-09T04:40:02;36.77;;;11.77;;
10910;SDS011;5508;49.150;11.030;2023-04-09T04:43:04;75.17;;;13.83;;
10910;SDS011;5508;49.150;11.030;2023-04-09T04:46:04;35.43;;;11.63;;
10910;SDS011;5508;49.150;11.030;2023-04-09T04:49:05;80.67;;;13.47;;
10910;SDS011;5508;49.150;11.030;2023-04-09T04:52:05;119.60;;;15.10;;
10910;SDS011;5508;49.150;11.030;2023-04-09T04:55:06;91.40;;;13.57;;
10910;SDS011;5508;49.150;11.030;2023-04-09T04:58:07;81.20;;;13.23;;
10910;SDS011;5508;49.150;11.030;2023-04-09T05:01:08;67.97;;;13.77;;
10910;SDS011;5508;49.150;11.030;2023-04-09T05:04:08;100.93;;;13.67;;
10910;SDS011;5508;49.150;11.030;2023-04-09T05:07:09;117.40;;;14.30;;
10910;SDS011;5508;49.150;11.030;2023-04-09T05:10:09;28.70;;;11.17;;
10910;SDS011;5508;49.150;11.030;2023-04-09T05:13:10;228.83;;;17.50;;
10910;SDS011;5508;49.150;11.030;2023-04-09T05:16:17;146.87;;;15.50;;
10910;SDS011;5508;49.150;11.030;2023-04-09T05:19:18;130.53;;;15.77;;
10910;SDS011;5508;49.150;11.030;2023-04-09T05:22:19;81.93;;;15.40;;
10910;SDS011;5508;49.150;11.030;2023-04-09T05:25:19;46.47;;;14.27;;
10910;SDS011;5508;49.150;11.030;2023-04-09T05:28:20;103.87;;;15.60;;
10910;SDS011;5508;49.150;11.030;2023-04-09T05:31:21;133.87;;;18.10;;
10910;SDS011;5508;49.150;11.030;2023-04-09T05:34:21;86.83;;;15.90;;
10910;SDS011;5508;49.150;11.030;2023-04-09T05:37:22;85.60;;;17.20;;
10910;SDS011;5508;49.150;11.030;2023-04-09T05:40:22;54.83;;;15.53;;
10910;SDS011;5508;49.150;11.030;2023-04-09T05:43:23;69.87;;;13.47;;
10910;SDS011;5508;49.150;11.030;2023-04-09T05:46:23;61.93;;;13.67;;
10910;SDS011;5508;49.150;11.030;2023-04-09T05:49:24;35.20;;;13.63;;
10910;SDS011;5508;49.150;11.030;2023-04-09T05:52:24;60.60;;;12.40;;
10910;SDS011;5508;49.150;11.030;2023-04-09T05:55:25;48.37;;;13.33;;
10910;SDS011;5508;49.150;11.030;2023-04-09T05:58:29;88.40;;;14.43;;
10910;SDS011;5508;49.150;11.030;2023-04-09T06:01:30;116.03;;;15.60;;
10910;SDS011;5508;49.150;11.030;2023-04-09T06:04:30;123.90;;;15.60;;
10910;SDS011;5508;49.150;11.030;2023-04-09T06:07:31;201.80;;;18.53;;
10910;SDS011;5508;49.150;11.030;2023-04-09T06:10:31;196.90;;;18.23;;
10910;SDS011;5508;49.150;11.030;2023-04-09T06:13:32;87.63;;;14.63;;
10910;SDS011;5508;49.150;11.030;2023-04-09T06:16:32;53.33;;;13.63;;
10910;SDS011;5508;49.150;11.030;2023-04-09T06:19:33;203.80;;;16.63;;
10910;SDS011;5508;49.150;11.030;2023-04-09T06:22:34;128.47;;;12.63;;
10910;SDS011;5508;49.150;11.030;2023-04-09T06:25:35;189.80;;;16.57;;
10910;SDS011;5508;49.150;11.030;2023-04-09T06:28:35;115.37;;;23.93;;
10910;SDS011;5508;49.150;11.030;2023-04-09T06:31:36;204.33;;;25.50;;
10910;SDS011;5508;49.150;11.030;2023-04-09T06:34:36;111.13;;;16.87;;
10910;SDS011;5508;49.150;11.030;2023-04-09T06:37:37;115.03;;;19.50;;
10910;SDS011;5508;49.150;11.030;2023-04-09T06:40:37;77.27;;;14.47;;
10910;SDS011;5508;49.150;11.030;2023-04-09T06:43:38;77.43;;;13.83;;
10910;SDS011;5508;49.150;11.030;2023-04-09T06:46:40;74.00;;;14.93;;
10910;SDS011;5508;49.150;11.030;2023-04-09T06:49:40;155.23;;;18.43;;
10910;SDS011;5508;49.150;11.030;2023-04-09T06:52:41;33.13;;;13.87;;
10910;SDS011;5508;49.150;11.030;2023-04-09T06:55:41;36.20;;;13.93;;
10910;SDS011;5508;49.150;11.030;2023-04-09T06:58:42;30.03;;;13.27;;
10910;SDS011;5508;49.150;11.030;2023-04-09T07:01:42;17.20;;;14.10;;
10910;SDS011;5508;49.150;11.030;2023-04-09T07:04:43;19.30;;;15.83;;
10910;SDS011;5508;49.150;11.030;2023-04-09T07:07:44;19.17;;;17.17;;
10910;SDS011;5508;49.150;11.030;2023-04-09T07:10:44;19.73;;;17.63;;
10910;SDS011;5508;49.150;11.030;2023-04-09T07:13:46;16.90;;;14.97;;
10910;SDS011;5508;49.150;11.030;2023-04-09T07:16:47;18.83;;;15.83;;
10910;SDS011;5508;49.150;11.030;2023-04-09T07:19:47;19.23;;;17.17;;
10910;SDS011;5508;49.150;11.030;2023-04-09T07:22:48;18.80;;;16.77;;
10910;SDS011;5508;49.150;11.030;2023-04-09T07:25:49;19.83;;;17.77;;
10910;SDS011;5508;49.150;11.030;2023-04-09T07:28:49;19.83;;;17.50;;
10910;SDS011;5508;49.150;11.030;2023-04-09T07:31:50;19.43;;;17.10;;
10910;SDS011;5508;49.150;11.030;2023-04-09T07:34:51;16.83;;;15.13;;
10910;SDS011;5508;49.150;11.030;2023-04-09T07:37:51;17.70;;;15.87;;
10910;SDS011;5508;49.150;11.030;2023-04-09T07:40:52;16.63;;;14.90;;
10910;SDS011;5508;49.150;11.030;2023-04-09T07:43:52;16.63;;;14.93;;
10910;SDS011;5508;49.150;11.030;2023-04-09T07:46:53;16.97;;;15.17;;
10910;SDS011;5508;49.150;11.030;2023-04-09T07:49:53;18.27;;;16.37;;
10910;SDS011;5508;49.150;11.030;2023-04-09T07:52:54;19.13;;;16.40;;
10910;SDS011;5508;49.150;11.030;2023-04-09T07:55:55;18.20;;;16.30;;
10910;SDS011;5508;49.150;11.030;2023-04-09T07:58:56;20.83;;;16.87;;
10910;SDS011;5508;49.150;11.030;2023-04-09T08:01:56;18.87;;;16.87;;
10910;SDS011;5508;49.150;11.030;2023-04-09T08:04:57;18.03;;;15.70;;
10910;SDS011;5508;49.150;11.030;2023-04-09T08:07:58;17.67;;;15.90;;
10910;SDS011;5508;49.150;11.030;2023-04-09T08:10:58;19.40;;;17.23;;
10910;SDS011;5508;49.150;11.030;2023-04-09T08:13:59;18.20;;;16.03;;
10910;SDS011;5508;49.150;11.030;2023-04-09T08:17:01;17.43;;;15.70;;
10910;SDS011;5508;49.150;11.030;2023-04-09T08:20:03;16.80;;;15.10;;
10910;SDS011;5508;49.150;11.030;2023-04-09T08:23:04;17.57;;;15.70;;
10910;SDS011;5508;49.150;11.030;2023-04-09T08:26:04;17.23;;;15.43;;
10910;SDS011;5508;49.150;11.030;2023-04-09T08:29:05;16.90;;;15.20;;
10910;SDS011;5508;49.150;11.030;2023-04-09T08:32:07;17.30;;;15.50;;
10910;SDS011;5508;49.150;11.030;2023-04-09T08:35:07;17.77;;;15.87;;
10910;SDS011;5508;49.150;11.030;2023-04-09T08:38:08;16.60;;;14.83;;
10910;SDS011;5508;49.150;11.030;2023-04-09T08:41:14;15.83;;;14.23;;
10910;SDS011;5508;49.150;11.030;2023-04-09T08:44:19;16.43;;;14.73;;
10910;SDS011;5508;49.150;11.030;2023-04-09T08:47:21;15.93;;;14.33;;
10910;SDS011;5508;49.150;11.030;2023-04-09T08:50:22;16.43;;;14.83;;
10910;SDS011;5508;49.150;11.030;2023-04-09T08:53:22;17.30;;;14.13;;
10910;SDS011;5508;49.150;11.030;2023-04-09T08:56:24;15.23;;;13.63;;
10910;SDS011;5508;49.150;11.030;2023-04-09T08:59:25;15.93;;;13.53;;
10910;SDS011;5508;49.150;11.030;2023-04-09T09:02:26;16.17;;;13.63;;
10910;SDS011;5508;49.150;11.030;2023-04-09T09:05:36;16.40;;;14.70;;
10910;SDS011;5508;49.150;11.030;2023-04-09T09:08:38;17.47;;;15.47;;
10910;SDS011;5508;49.150;11.030;2023-04-09T09:11:39;17.03;;;15.30;;
10910;SDS011;5508;49.150;11.030;2023-04-09T09:14:43;15.37;;;13.83;;
10910;SDS011;5508;49.150;11.030;2023-04-09T09:17:52;14.60;;;13.20;;
10910;SDS011;5508;49.150;11.030;2023-04-09T09:21:03;14.03;;;12.73;;
10910;SDS011;5508;49.150;11.030;2023-04-09T09:24:15;14.43;;;12.93;;
10910;SDS011;5508;49.150;11.030;2023-04-09T09:30:35;15.33;;;13.73;;
10910;SDS011;5508;49.150;11.030;2023-04-09T09:33:38;13.70;;;12.40;;
10910;SDS011;5508;49.150;11.030;2023-04-09T09:36:38;12.67;;;11.47;;
10910;SDS011;5508;49.150;11.030;2023-04-09T09:39:42;14.10;;;12.53;;
10910;SDS011;5508;49.150;11.030;2023-04-09T09:42:56;14.83;;;13.33;;
10910;SDS011;5508;49.150;11.030;2023-04-09T09:45:57;14.67;;;13.27;;
10910;SDS011;5508;49.150;11.030;2023-04-09T09:48:57;14.50;;;13.00;;
10910;SDS011;5508;49.150;11.030;2023-04-09T09:51:59;14.97;;;13.40;;
10910;SDS011;5508;49.150;11.030;2023-04-09T09:55:02;14.20;;;12.70;;
10910;SDS011;5508;49.150;11.030;2023-04-09T09:58:15;14.27;;;12.77;;
10910;SDS011;5508;49.150;11.030;2023-04-09T10:01:18;15.80;;;13.07;;
10910;SDS011;5508;49.150;11.030;2023-04-09T10:04:20;14.63;;;13.03;;
10910;SDS011;5508;49.150;11.030;2023-04-09T10:07:22;12.97;;;11.70;;
10910;SDS011;5508;49.150;11.030;2023-04-09T10:10:23;13.20;;;11.90;;
10910;SDS011;5508;49.150;11.030;2023-04-09T10:13:26;13.00;;;11.70;;
10910;SDS011;5508;49.150;11.030;2023-04-09T10:16:32;14.97;;;12.60;;
10910;SDS011;5508;49.150;11.030;2023-04-09T10:19:35;11.77;;;10.53;;
10910;SDS011;5508;49.150;11.030;2023-04-09T10:22:42;11.60;;;10.43;;
10910;SDS011;5508;49.150;11.030;2023-04-09T10:25:47;11.73;;;10.60;;
10910;SDS011;5508;49.150;11.030;2023-04-09T10:29:02;11.03;;;9.93;;
10910;SDS011;5508;49.150;11.030;2023-04-09T10:32:05;11.00;;;9.90;;
10910;SDS011;5508;49.150;11.030;2023-04-09T10:35:06;9.90;;;8.90;;
10910;SDS011;5508;49.150;11.030;2023-04-09T10:38:09;10.57;;;9.47;;
10910;SDS011;5508;49.150;11.030;2023-04-09T10:41:13;10.40;;;9.37;;
10910;SDS011;5508;49.150;11.030;2023-04-09T10:44:35;9.70;;;8.70;;
10910;SDS011;5508;49.150;11.030;2023-04-09T10:47:41;8.90;;;8.10;;
10910;SDS011;5508;49.150;11.030;2023-04-09T10:50:42;9.97;;;8.70;;
10910;SDS011;5508;49.150;11.030;2023-04-09T10:53:43;8.07;;;7.27;;
10910;SDS011;5508;49.150;11.030;2023-04-09T10:57:08;7.50;;;6.80;;
10910;SDS011;5508;49.150;11.030;2023-04-09T11:00:10;10.40;;;9.40;;
10910;SDS011;5508;49.150;11.030;2023-04-09T11:06:19;11.30;;;10.20;;
10910;SDS011;5508;49.150;11.030;2023-04-09T11:09:20;10.97;;;9.87;;
10910;SDS011;5508;49.150;11.030;2023-04-09T11:12:21;10.17;;;9.07;;
10910;SDS011;5508;49.150;11.030;2023-04-09T11:15:21;10.30;;;9.20;;
10910;SDS011;5508;49.150;11.030;2023-04-09T11:18:23;10.57;;;9.57;;
10910;SDS011;5508;49.150;11.030;2023-04-09T11:21:28;11.47;;;10.30;;
10910;SDS011;5508;49.150;11.030;2023-04-09T11:24:39;10.33;;;9.33;;
10910;SDS011;5508;49.150;11.030;2023-04-09T11:27:43;9.73;;;8.77;;
10910;SDS011;5508;49.150;11.030;2023-04-09T11:30:44;9.73;;;8.37;;
10910;SDS011;5508;49.150;11.030;2023-04-09T11:33:47;10.17;;;9.17;;
10910;SDS011;5508;49.150;11.030;2023-04-09T11:36:50;10.70;;;9.60;;
10910;SDS011;5508;49.150;11.030;2023-04-09T11:39:52;9.30;;;8.40;;
10910;SDS011;5508;49.150;11.030;2023-04-09T11:42:54;9.87;;;8.93;;
10910;SDS011;5508;49.150;11.030;2023-04-09T11:45:55;8.43;;;7.63;;
10910;SDS011;5508;49.150;11.030;2023-04-09T11:48:56;9.50;;;8.50;;
10910;SDS011;5508;49.150;11.030;2023-04-09T11:51:57;9.17;;;8.27;;
10910;SDS011;5508;49.150;11.030;2023-04-09T11:55:01;8.10;;;7.30;;
10910;SDS011;5508;49.150;11.030;2023-04-09T11:58:03;7.67;;;6.97;;
10910;SDS011;5508;49.150;11.030;2023-04-09T12:01:03;7.23;;;6.53;;
10910;SDS011;5508;49.150;11.030;2023-04-09T12:04:04;5.57;;;5.07;;
10910;SDS011;5508;49.150;11.030;2023-04-09T12:07:06;6.27;;;5.67;;
10910;SDS011;5508;49.150;11.030;2023-04-09T12:10:08;6.83;;;6.23;;
10910;SDS011;5508;49.150;11.030;2023-04-09T12:13:09;6.80;;;6.20;;
10910;SDS011;5508;49.150;11.030;2023-04-09T12:16:10;7.37;;;6.67;;
10910;SDS011;5508;49.150;11.030;2023-04-09T12:19:12;7.10;;;6.40;;
10910;SDS011;5508;49.150;11.030;2023-04-09T12:22:13;7.07;;;6.37;;
10910;SDS011;5508;49.150;11.030;2023-04-09T12:25:13;7.40;;;6.70;;
10910;SDS011;5508;49.150;11.030;2023-04-09T12:28:14;7.10;;;6.47;;
10910;SDS011;5508;49.150;11.030;2023-04-09T12:31:16;8.20;;;7.40;;
10910;SDS011;5508;49.150;11.030;2023-04-09T12:34:17;7.63;;;6.93;;
10910;SDS011;5508;49.150;11.030;2023-04-09T12:37:17;8.97;;;8.07;;
10910;SDS011;5508;49.150;11.030;2023-04-09T12:40:18;9.27;;;8.37;;
10910;SDS011;5508;49.150;11.030;2023-04-09T12:43:19;7.67;;;6.83;;
10910;SDS011;5508;49.150;11.030;2023-04-09T12:46:20;6.90;;;6.30;;
10910;SDS011;5508;49.150;11.030;2023-04-09T12:49:20;8.33;;;7.17;;
10910;SDS011;5508;49.150;11.030;2023-04-09T12:52:21;7.10;;;6.40;;
10910;SDS011;5508;49.150;11.030;2023-04-09T12:55:23;8.10;;;7.40;;
10910;SDS011;5508;49.150;11.030;2023-04-09T12:58:23;7.70;;;7.00;;
10910;SDS011;5508;49.150;11.030;2023-04-09T13:01:24;8.03;;;7.33;;
10910;SDS011;5508;49.150;11.030;2023-04-09T13:04:24;6.77;;;6.17;;
10910;SDS011;5508;49.150;11.030;2023-04-09T13:07:25;7.07;;;6.37;;
10910;SDS011;5508;49.150;11.030;2023-04-09T13:10:28;7.23;;;6.50;;
10910;SDS011;5508;49.150;11.030;2023-04-09T13:13:29;6.90;;;6.20;;
10910;SDS011;5508;49.150;11.030;2023-04-09T13:16:30;6.83;;;6.23;;
10910;SDS011;5508;49.150;11.030;2023-04-09T13:19:31;6.87;;;6.20;;
10910;SDS011;5508;49.150;11.030;2023-04-09T13:22:32;7.53;;;6.83;;
10910;SDS011;5508;49.150;11.030;2023-04-09T13:25:32;7.30;;;6.60;;
10910;SDS011;5508;49.150;11.030;2023-04-09T13:28:33;6.70;;;6.10;;
10910;SDS011;5508;49.150;11.030;2023-04-09T13:31:34;7.77;;;6.87;;
10910;SDS011;5508;49.150;11.030;2023-04-09T13:34:35;7.20;;;6.50;;
10910;SDS011;5508;49.150;11.030;2023-04-09T13:37:37;7.50;;;6.80;;
10910;SDS011;5508;49.150;11.030;2023-04-09T13:40:37;8.37;;;7.57;;
10910;SDS011;5508;49.150;11.030;2023-04-09T13:43:38;10.10;;;7.40;;
10910;SDS011;5508;49.150;11.030;2023-04-09T13:46:38;10.10;;;8.13;;
10910;SDS011;5508;49.150;11.030;2023-04-09T13:49:39;8.10;;;7.30;;
10910;SDS011;5508;49.150;11.030;2023-04-09T13:52:41;7.93;;;7.13;;
10910;SDS011;5508;49.150;11.030;2023-04-09T13:55:42;8.17;;;7.30;;
10910;SDS011;5508;49.150;11.030;2023-04-09T13:58:43;7.60;;;6.90;;
10910;SDS011;5508;49.150;11.030;2023-04-09T14:01:43;8.13;;;7.33;;
10910;SDS011;5508;49.150;11.030;2023-04-09T14:04:44;11.13;;;10.03;;
10910;SDS011;5508;49.150;11.030;2023-04-09T14:07:45;7.97;;;7.27;;
10910;SDS011;5508;49.150;11.030;2023-04-09T14:10:45;7.40;;;6.70;;
10910;SDS011;5508;49.150;11.030;2023-04-09T14:13:46;8.50;;;7.67;;
10910;SDS011;5508;49.150;11.030;2023-04-09T14:16:47;8.07;;;6.83;;
10910;SDS011;5508;49.150;11.030;2023-04-09T14:19:49;9.10;;;7.10;;
10910;SDS011;5508;49.150;11.030;2023-04-09T14:22:49;7.37;;;6.67;;
10910;SDS011;5508;49.150;11.030;2023-04-09T14:25:50;7.70;;;6.90;;
10910;SDS011;5508;49.150;11.030;2023-04-09T14:28:52;8.03;;;7.33;;
10910;SDS011;5508;49.150;11.030;2023-04-09T14:31:52;8.67;;;7.87;;
10910;SDS011;5508;49.150;11.030;2023-04-09T14:34:53;9.00;;;8.10;;
10910;SDS011;5508;49.150;11.030;2023-04-09T14:37:54;7.87;;;7.17;;
10910;SDS011;5508;49.150;11.030;2023-04-09T14:40:54;10.40;;;8.93;;
10910;SDS011;5508;49.150;11.030;2023-04-09T14:43:55;9.03;;;8.23;;
10910;SDS011;5508;49.150;11.030;2023-04-09T14:46:55;8.50;;;6.80;;
10910;SDS011;5508;49.150;11.030;2023-04-09T14:49:56;7.90;;;7.07;;
10910;SDS011;5508;49.150;11.030;2023-04-09T14:52:57;9.20;;;7.63;;
10910;SDS011;5508;49.150;11.030;2023-04-09T14:55:57;7.80;;;7.03;;
10910;SDS011;5508;49.150;11.030;2023-04-09T14:58:58;8.23;;;7.43;;
10910;SDS011;5508;49.150;11.030;2023-04-09T15:01:58;8.70;;;7.90;;
10910;SDS011;5508;49.150;11.030;2023-04-09T15:04:59;9.03;;;8.13;;
10910;SDS011;5508;49.150;11.030;2023-04-09T15:08:00;9.57;;;8.67;;
10910;SDS011;5508;49.150;11.030;2023-04-09T15:11:01;8.63;;;7.37;;
10910;SDS011;5508;49.150;11.030;2023-04-09T15:14:01;12.07;;;10.47;;
10910;SDS011;5508;49.150;11.030;2023-04-09T15:17:02;10.30;;;8.50;;
10910;SDS011;5508;49.150;11.030;2023-04-09T15:20:03;8.33;;;7.53;;
10910;SDS011;5508;49.150;11.030;2023-04-09T15:23:03;8.50;;;7.70;;
10910;SDS011;5508;49.150;11.030;2023-04-09T15:26:04;9.77;;;8.80;;
10910;SDS011;5508;49.150;11.030;2023-04-09T15:29:05;8.33;;;7.53;;
10910;SDS011;5508;49.150;11.030;2023-04-09T15:32:06;9.57;;;8.57;;
10910;SDS011;5508;49.150;11.030;2023-04-09T15:35:07;9.97;;;8.43;;
10910;SDS011;5508;49.150;11.030;2023-04-09T15:38:08;8.90;;;8.00;;
10910;SDS011;5508;49.150;11.030;2023-04-09T15:41:08;9.23;;;8.43;;
10910;SDS011;5508;49.150;11.030;2023-04-09T15:44:09;9.10;;;8.20;;
10910;SDS011;5508;49.150;11.030;2023-04-09T15:47:10;8.23;;;7.43;;
10910;SDS011;5508;49.150;11.030;2023-04-09T15:50:10;9.53;;;8.63;;
10910;SDS011;5508;49.150;11.030;2023-04-09T15:53:12;9.20;;;8.30;;
10910;SDS011;5508;49.150;11.030;2023-04-09T15:56:14;11.73;;;10.07;;
10910;SDS011;5508;49.150;11.030;2023-04-09T15:59:14;14.53;;;11.50;;
10910;SDS011;5508;49.150;11.030;2023-04-09T16:02:15;14.50;;;11.97;;
10910;SDS011;5508;49.150;11.030;2023-04-09T16:05:15;10.97;;;9.10;;
10910;SDS011;5508;49.150;11.030;2023-04-09T16:08:16;9.73;;;8.73;;
10910;SDS011;5508;49.150;11.030;2023-04-09T16:11:16;8.60;;;7.80;;
10910;SDS011;5508;49.150;11.030;2023-04-09T16:14:17;9.73;;;8.77;;
10910;SDS011;5508;49.150;11.030;2023-04-09T16:17:17;14.13;;;12.63;;
10910;SDS011;5508;49.150;11.030;2023-04-09T16:20:18;10.73;;;9.63;;
10910;SDS011;5508;49.150;11.030;2023-04-09T16:23:19;12.80;;;10.90;;
10910;SDS011;5508;49.150;11.030;2023-04-09T16:26:20;12.37;;;8.53;;
10910;SDS011;5508;49.150;11.030;2023-04-09T16:29:21;9.17;;;8.30;;
10910;SDS011;5508;49.150;11.030;2023-04-09T16:32:21;9.63;;;8.63;;
10910;SDS011;5508;49.150;11.030;2023-04-09T16:35:22;9.37;;;8.47;;
10910;SDS011;5508;49.150;11.030;2023-04-09T16:38:23;8.40;;;7.53;;
10910;SDS011;5508;49.150;11.030;2023-04-09T16:41:26;8.07;;;7.27;;
10910;SDS011;5508;49.150;11.030;2023-04-09T16:44:26;8.40;;;7.60;;
10910;SDS011;5508;49.150;11.030;2023-04-09T16:47:27;7.70;;;7.00;;
10910;SDS011;5508;49.150;11.030;2023-04-09T16:50:27;10.30;;;9.30;;
10910;SDS011;5508;49.150;11.030;2023-04-09T16:53:28;9.20;;;8.30;;
10910;SDS011;5508;49.150;11.030;2023-04-09T16:56:28;8.43;;;7.60;;
10910;SDS011;5508;49.150;11.030;2023-04-09T16:59:29;11.07;;;8.93;;
10910;SDS011;5508;49.150;11.030;2023-04-09T17:02:30;9.20;;;8.20;;
10910;SDS011;5508;49.150;11.030;2023-04-09T17:05:31;8.63;;;7.83;;
10910;SDS011;5508;49.150;11.030;2023-04-09T17:08:32;8.50;;;7.40;;
10910;SDS011;5508;49.150;11.030;2023-04-09T17:11:34;8.63;;;7.83;;
10910;SDS011;5508;49.150;11.030;2023-04-09T17:14:37;8.00;;;7.20;;
10910;SDS011;5508;49.150;11.030;2023-04-09T17:17:37;8.00;;;7.20;;
10910;SDS011;5508;49.150;11.030;2023-04-09T17:20:38;8.50;;;7.70;;
10910;SDS011;5508;49.150;11.030;2023-04-09T17:23:41;8.50;;;7.60;;
10910;SDS011;5508;49.150;11.030;2023-04-09T17:26:43;8.77;;;7.30;;
10910;SDS011;5508;49.150;11.030;2023-04-09T17:29:43;8.83;;;7.93;;
10910;SDS011;5508;49.150;11.030;2023-04-09T17:32:44;8.00;;;7.20;;
10910;SDS011;5508;49.150;11.030;2023-04-09T17:35:44;9.30;;;7.70;;
10910;SDS011;5508;49.150;11.030;2023-04-09T17:38:45;8.13;;;7.33;;
10910;SDS011;5508;49.150;11.030;2023-04-09T17:41:46;9.93;;;8.90;;
10910;SDS011;5508;49.150;11.030;2023-04-09T17:44:47;13.57;;;11.53;;
10910;SDS011;5508;49.150;11.030;2023-04-09T17:47:47;16.10;;;12.90;;
10910;SDS011;5508;49.150;11.030;2023-04-09T17:50:49;12.53;;;10.90;;
10910;SDS011;5508;49.150;11.030;2023-04-09T17:53:51;18.87;;;15.23;;
10910;SDS011;5508;49.150;11.030;2023-04-09T17:56:52;13.77;;;12.03;;
10910;SDS011;5508;49.150;11.030;2023-04-09T17:59:53;11.93;;;10.47;;
10910;SDS011;5508;49.150;11.030;2023-04-09T18:02:54;11.97;;;10.67;;
10910;SDS011;5508;49.150;11.030;2023-04-09T18:05:55;12.37;;;10.40;;